Terminal Aerodrome Forecast
Issued by NWS Melbourne, FL

Home | Current Version | Previous Version | Text Only | Print | Product List | Glossary On
Versions: 1 2 3 4 5 6 7 8 9 10 11 12 13 14 15 16
000
FTUS42 KMLB 211100 RRA
TAFMLB
TAF
KMLB 211141Z 2112/2212 29004KT P6SM BKN140
     FM211400 32005KT P6SM SCT020 BKN200
     FM211800 09007KT P6SM VCTS SCT025CB BKN100
     FM220100 VRB02KT P6SM FEW030 BKN120=

USA.gov is the U.S. government's official web portal to all federal, state and local government web resources and services.